createdAt,value
2022-09-22T00:00:01.640Z,92.92
2022-09-22T00:00:33.175Z,92.88
2022-09-22T00:01:07.511Z,92.92
2022-09-22T00:01:40.858Z,92.85
2022-09-22T00:02:12.419Z,93.13
2022-09-22T00:02:43.963Z,92.89
2022-09-22T00:03:15.512Z,92.89
2022-09-22T00:03:52.792Z,92.73
2022-09-22T00:04:24.405Z,92.82
2022-09-22T00:04:55.905Z,92.99
2022-09-22T00:05:27.449Z,92.59
2022-09-22T00:06:05.618Z,92.76
2022-09-22T00:06:41.075Z,92.71
2022-09-22T00:07:12.592Z,92.71
2022-09-22T00:07:44.115Z,92.70
2022-09-22T00:08:16.012Z,92.90
2022-09-22T00:08:53.061Z,92.66
2022-09-22T00:09:24.589Z,92.65
2022-09-22T00:09:56.449Z,92.53
2022-09-22T00:10:28.416Z,92.36
2022-09-22T00:11:09.149Z,92.41
2022-09-22T00:11:44.233Z,92.61
2022-09-22T00:12:15.727Z,92.51
2022-09-22T00:12:51.093Z,92.77
2022-09-22T00:13:22.588Z,92.75
2022-09-22T00:13:59.784Z,92.74
2022-09-22T00:14:31.318Z,92.69
2022-09-22T00:15:03.243Z,92.64
2022-09-22T00:15:34.885Z,92.53
2022-09-22T00:16:11.263Z,92.83
2022-09-22T00:16:48.369Z,92.77
2022-09-22T00:17:19.861Z,92.84
2022-09-22T00:17:51.497Z,92.86
2022-09-22T00:18:23.064Z,92.95
2022-09-22T00:18:54.639Z,92.96
2022-09-22T00:19:29.597Z,92.86
2022-09-22T00:20:01.322Z,92.80
2022-09-22T00:20:32.821Z,92.71
2022-09-22T00:21:13.439Z,92.78
2022-09-22T00:21:45.926Z,92.83
2022-09-22T00:22:17.418Z,92.86
2022-09-22T00:22:50.989Z,92.77
2022-09-22T00:23:26.698Z,92.87
2022-09-22T00:24:01.193Z,92.70
2022-09-22T00:24:33.603Z,92.77
2022-09-22T00:25:05.721Z,92.88
2022-09-22T00:25:40.006Z,92.98
2022-09-22T00:26:14.365Z,92.83
2022-09-22T00:26:45.971Z,92.81
2022-09-22T00:27:17.474Z,92.79
2022-09-22T00:27:49.105Z,92.78
2022-09-22T00:28:21.872Z,92.89
2022-09-22T00:28:53.467Z,92.85
2022-09-22T00:29:26.889Z,92.97
2022-09-22T00:29:58.378Z,93.09
2022-09-22T00:30:31.241Z,93.25
2022-09-22T00:31:12.039Z,93.22
2022-09-22T00:31:44.918Z,93.14
2022-09-22T00:32:16.461Z,93.06
2022-09-22T00:32:47.943Z,93.14
2022-09-22T00:33:19.450Z,93.32
2022-09-22T00:33:52.361Z,93.42
2022-09-22T00:34:26.188Z,93.35
2022-09-22T00:34:57.673Z,93.17
2022-09-22T00:35:29.161Z,93.02
2022-09-22T00:36:04.413Z,92.88
2022-09-22T00:36:35.961Z,92.76
2022-09-22T00:37:07.483Z,92.71
2022-09-22T00:37:38.984Z,92.97
2022-09-22T00:38:10.468Z,92.74
2022-09-22T00:38:42.795Z,92.63
2022-09-22T00:39:15.853Z,92.46
2022-09-22T00:39:47.463Z,92.23
2022-09-22T00:40:19.021Z,92.11
2022-09-22T00:40:51.137Z,92.11
2022-09-22T00:41:29.828Z,92.37
2022-09-22T00:42:01.384Z,92.35
2022-09-22T00:42:32.931Z,92.46
2022-09-22T00:43:22.652Z,92.31
2022-09-22T00:44:36.085Z,92.84
2022-09-22T00:45:11.933Z,92.67
2022-09-22T00:45:43.900Z,92.92
2022-09-22T00:46:20.781Z,92.68
2022-09-22T00:47:21.063Z,92.95
2022-09-22T00:47:53.146Z,92.71
2022-09-22T00:48:26.515Z,92.59
2022-09-22T00:49:02.793Z,92.49
2022-09-22T00:49:52.768Z,92.67
2022-09-22T00:50:25.147Z,92.58
2022-09-22T00:50:58.598Z,92.59
2022-09-22T00:51:37.981Z,92.58
2022-09-22T00:52:11.249Z,92.52
2022-09-22T00:52:47.939Z,92.50
2022-09-22T00:53:22.273Z,92.49
2022-09-22T00:53:55.335Z,92.37
2022-09-22T00:54:27.014Z,92.43
2022-09-22T00:55:02.153Z,92.60
2022-09-22T00:55:39.489Z,92.52
2022-09-22T00:56:16.209Z,92.56
2022-09-22T00:56:54.929Z,92.75
2022-09-22T00:57:33.669Z,92.78
2022-09-22T00:58:09.277Z,92.92
2022-09-22T00:59:04.782Z,92.76
2022-09-22T00:59:37.123Z,92.95
2022-09-22T01:00:11.137Z,92.85
2022-09-22T01:00:43.455Z,92.86
2022-09-22T01:01:15.989Z,92.79
2022-09-22T01:01:48.399Z,92.85
2022-09-22T01:02:21.111Z,93.01
2022-09-22T01:02:57.115Z,93.04
2022-09-22T01:03:30.105Z,93.06
2022-09-22T01:04:02.314Z,93.12
2022-09-22T01:04:34.000Z,92.98
2022-09-22T01:05:06.634Z,92.87
2022-09-22T01:05:40.152Z,93.06
2022-09-22T01:06:16.322Z,92.81
2022-09-22T01:06:47.852Z,92.85
2022-09-22T01:07:22.630Z,92.91
2022-09-22T01:07:55.236Z,92.87
2022-09-22T01:08:28.484Z,92.75
2022-09-22T01:09:01.588Z,92.81
2022-09-22T01:09:33.457Z,93.01
2022-09-22T01:10:05.411Z,93.07
2022-09-22T01:10:37.049Z,93.04
2022-09-22T01:11:08.600Z,93.13
2022-09-22T01:11:41.507Z,93.01
2022-09-22T01:12:13.236Z,92.93
2022-09-22T01:13:19.263Z,92.99
2022-09-22T01:14:09.702Z,93.11
2022-09-22T01:15:05.997Z,93.13
2022-09-22T01:15:58.563Z,93.08
2022-09-22T01:17:02.463Z,92.94
2022-09-22T01:18:08.424Z,93.20
2022-09-22T01:19:00.148Z,92.97
2022-09-22T01:20:09.208Z,92.90
2022-09-22T01:21:02.381Z,92.96
2022-09-22T01:21:42.973Z,93.11
2022-09-22T01:22:40.393Z,93.05
2022-09-22T01:23:37.845Z,92.93
2022-09-22T01:24:46.698Z,93.09
2022-09-22T01:25:46.138Z,93.13
2022-09-22T01:26:35.684Z,93.06
2022-09-22T01:27:38.084Z,93.34
2022-09-22T01:28:43.663Z,93.19
2022-09-22T01:29:33.916Z,93.29
2022-09-22T01:30:05.368Z,93.24
2022-09-22T01:31:03.437Z,93.42
2022-09-22T01:32:07.621Z,93.18
2022-09-22T01:33:11.384Z,93.01
2022-09-22T01:33:49.613Z,93.13
2022-09-22T01:34:33.784Z,93.23
2022-09-22T01:35:24.105Z,93.13
2022-09-22T01:36:06.767Z,93.17
2022-09-22T01:36:46.453Z,93.11
2022-09-22T01:37:29.245Z,93.36
2022-09-22T01:38:12.997Z,93.51
2022-09-22T01:39:05.360Z,93.44
2022-09-22T01:40:04.120Z,93.52
2022-09-22T01:41:02.173Z,93.37
2022-09-22T01:41:51.928Z,93.36
2022-09-22T01:42:37.100Z,93.43
2022-09-22T01:43:08.654Z,93.43
2022-09-22T01:43:50.845Z,93.53
2022-09-22T01:44:27.014Z,93.41
2022-09-22T01:45:05.945Z,93.31
2022-09-22T01:45:41.217Z,93.20
2022-09-22T01:46:43.167Z,93.34
2022-09-22T01:47:50.747Z,93.33
2022-09-22T01:48:31.281Z,93.34
2022-09-22T01:49:08.197Z,93.39
2022-09-22T01:49:45.779Z,93.30
2022-09-22T01:50:28.161Z,93.45
2022-09-22T01:51:15.133Z,93.54
2022-09-22T01:52:11.954Z,93.50
2022-09-22T01:52:44.833Z,93.46
2022-09-22T01:53:20.505Z,93.33
2022-09-22T01:54:01.306Z,93.40
2022-09-22T01:54:39.151Z,93.50
2022-09-22T01:55:19.244Z,93.56
2022-09-22T01:55:59.133Z,93.47
2022-09-22T01:56:34.837Z,93.42
2022-09-22T01:57:21.522Z,93.45
2022-09-22T01:58:01.771Z,93.43
2022-09-22T01:58:39.415Z,93.43
2022-09-22T01:59:12.111Z,93.30
2022-09-22T01:59:49.214Z,93.38
2022-09-22T02:01:14.255Z,93.37
2022-09-22T02:01:53.984Z,93.34
2022-09-22T02:02:31.391Z,93.22
2022-09-22T02:03:21.427Z,93.28
2022-09-22T02:04:13.127Z,93.04
2022-09-22T02:04:50.968Z,93.10
2022-09-22T02:05:43.682Z,93.01
2022-09-22T02:06:18.152Z,93.06
2022-09-22T02:07:02.437Z,93.42
2022-09-22T02:07:37.137Z,93.46
2022-09-22T02:08:16.958Z,93.43
2022-09-22T02:09:09.256Z,93.42
2022-09-22T02:09:42.539Z,93.34
2022-09-22T02:10:17.758Z,93.44
2022-09-22T02:10:51.826Z,93.48
2022-09-22T02:11:23.857Z,93.25
2022-09-22T02:11:56.080Z,93.34
2022-09-22T02:12:27.716Z,93.24
2022-09-22T02:13:00.600Z,93.27
2022-09-22T02:13:32.111Z,93.36
2022-09-22T02:14:04.981Z,93.39
2022-09-22T02:14:36.572Z,93.31
2022-09-22T02:15:28.950Z,93.41
2022-09-22T02:16:00.631Z,93.47
2022-09-22T02:16:33.068Z,93.58
2022-09-22T02:17:04.816Z,93.76
2022-09-22T02:17:36.450Z,93.51
2022-09-22T02:18:23.032Z,93.60
2022-09-22T02:19:29.975Z,93.47
2022-09-22T02:20:01.863Z,93.38
2022-09-22T02:20:33.876Z,93.29
2022-09-22T02:21:05.582Z,93.19
2022-09-22T02:21:39.146Z,93.24
2022-09-22T02:22:11.769Z,93.36
2022-09-22T02:22:43.362Z,93.46
2022-09-22T02:23:14.877Z,93.25
2022-09-22T02:23:47.596Z,93.30
2022-09-22T02:24:30.728Z,93.43
2022-09-22T02:25:02.297Z,93.25
2022-09-22T02:25:33.945Z,93.32
2022-09-22T02:26:06.861Z,93.30
2022-09-22T02:26:38.658Z,93.42
2022-09-22T02:27:16.514Z,93.44
2022-09-22T02:27:49.095Z,93.34
2022-09-22T02:28:22.339Z,93.28
2022-09-22T02:29:00.899Z,92.94
2022-09-22T02:29:35.898Z,92.96
2022-09-22T02:30:12.834Z,93.11
2022-09-22T02:31:04.360Z,93.22
2022-09-22T02:31:40.423Z,93.46
2022-09-22T02:32:16.220Z,93.46
2022-09-22T02:32:51.062Z,93.45
2022-09-22T02:33:25.698Z,93.51
2022-09-22T02:33:57.707Z,93.43
2022-09-22T02:34:29.359Z,93.27
2022-09-22T02:35:02.117Z,93.35
2022-09-22T02:35:37.379Z,93.38
2022-09-22T02:36:08.958Z,93.44
2022-09-22T02:36:51.152Z,93.59
2022-09-22T02:37:30.687Z,93.63
2022-09-22T02:38:16.570Z,93.41
2022-09-22T02:39:05.027Z,93.46
2022-09-22T02:39:44.166Z,93.43
2022-09-22T02:40:22.436Z,93.51
2022-09-22T02:41:17.776Z,93.50
2022-09-22T02:42:01.337Z,93.39
2022-09-22T02:42:44.134Z,93.28
2022-09-22T02:43:38.633Z,93.51
2022-09-22T02:44:19.105Z,93.46
2022-09-22T02:45:01.168Z,93.52
2022-09-22T02:45:51.089Z,93.75
2022-09-22T02:46:28.813Z,93.74
2022-09-22T02:47:08.324Z,93.67
2022-09-22T02:47:45.920Z,93.91
2022-09-22T02:48:27.548Z,93.77
2022-09-22T02:49:10.343Z,93.75
2022-09-22T02:49:43.460Z,93.69
2022-09-22T02:50:18.426Z,93.61
2022-09-22T02:50:50.448Z,93.62
2022-09-22T02:51:22.266Z,93.71
2022-09-22T02:51:54.429Z,93.89
2022-09-22T02:52:26.054Z,93.94
2022-09-22T02:53:02.348Z,93.95
2022-09-22T02:53:35.660Z,93.78
2022-09-22T02:54:07.255Z,93.83
2022-09-22T02:54:39.339Z,93.90
2022-09-22T02:55:13.630Z,93.74
2022-09-22T02:55:45.987Z,93.80
2022-09-22T02:56:17.484Z,93.85
2022-09-22T02:56:49.156Z,93.67
2022-09-22T02:57:21.276Z,93.86
2022-09-22T02:57:52.916Z,93.74
2022-09-22T02:58:24.442Z,93.74
2022-09-22T02:58:58.485Z,93.61
2022-09-22T02:59:30.278Z,93.60
2022-09-22T03:00:03.690Z,93.60
2022-09-22T03:00:36.256Z,93.71
2022-09-22T03:01:07.847Z,93.78
2022-09-22T03:01:39.436Z,93.74
2022-09-22T03:02:10.984Z,93.78
2022-09-22T03:02:42.497Z,93.81
2022-09-22T03:03:14.108Z,93.83
2022-09-22T03:03:45.704Z,94.02
2022-09-22T03:04:17.224Z,94.08
2022-09-22T03:04:50.767Z,94.08
2022-09-22T03:05:22.288Z,94.07
2022-09-22T03:05:53.825Z,94.11
2022-09-22T03:06:25.388Z,94.26
2022-09-22T03:06:57.189Z,94.31
2022-09-22T03:07:28.710Z,94.27
2022-09-22T03:08:00.334Z,94.29
2022-09-22T03:08:31.913Z,94.38
2022-09-22T03:09:03.610Z,94.23
2022-09-22T03:09:35.325Z,94.21
2022-09-22T03:10:08.032Z,94.17
2022-09-22T03:10:39.567Z,94.07
2022-09-22T03:11:11.077Z,93.93
2022-09-22T03:11:42.647Z,93.89
2022-09-22T03:12:14.179Z,93.98
2022-09-22T03:13:09.049Z,94.15
2022-09-22T03:13:37.249Z,93.92
2022-09-22T03:14:08.822Z,93.94
2022-09-22T03:14:40.456Z,94.06
2022-09-22T03:15:13.467Z,94.03
2022-09-22T03:15:46.220Z,94.07
2022-09-22T03:16:17.825Z,93.91
2022-09-22T03:16:49.436Z,94.11
2022-09-22T03:17:20.968Z,94.00
2022-09-22T03:17:52.492Z,94.07
2022-09-22T03:18:24.066Z,94.09
2022-09-22T03:18:57.385Z,93.89
2022-09-22T03:19:28.974Z,93.94
2022-09-22T03:20:00.484Z,94.07
2022-09-22T03:20:32.009Z,94.16
2022-09-22T03:21:03.642Z,94.20
2022-09-22T03:21:35.151Z,94.23
2022-09-22T03:22:06.672Z,94.33
2022-09-22T03:22:38.819Z,94.30
2022-09-22T03:23:10.406Z,94.14
2022-09-22T03:23:41.925Z,94.32
2022-09-22T03:24:13.450Z,94.42
2022-09-22T03:24:44.965Z,94.32
2022-09-22T03:25:16.650Z,94.28
2022-09-22T03:25:48.194Z,94.20
2022-09-22T03:26:19.744Z,94.26
2022-09-22T03:26:51.257Z,94.38
2022-09-22T03:27:22.981Z,94.25
2022-09-22T03:27:54.477Z,94.24
2022-09-22T03:28:26.261Z,94.33
2022-09-22T03:28:57.861Z,94.56
2022-09-22T03:29:29.446Z,94.43
2022-09-22T03:30:00.957Z,94.23
2022-09-22T03:30:32.688Z,94.37
2022-09-22T03:31:04.437Z,94.25
2022-09-22T03:31:36.091Z,94.18
2022-09-22T03:32:07.646Z,94.13
2022-09-22T03:32:39.233Z,94.35
2022-09-22T03:33:10.741Z,94.41
2022-09-22T03:33:42.258Z,94.40
2022-09-22T03:34:13.763Z,94.38
2022-09-22T03:34:45.326Z,94.46
2022-09-22T03:35:16.996Z,94.52
2022-09-22T03:35:48.505Z,94.51
2022-09-22T03:36:20.389Z,94.39
2022-09-22T03:36:51.974Z,94.37
2022-09-22T03:37:23.885Z,94.20
2022-09-22T03:37:55.389Z,94.07
2022-09-22T03:38:26.933Z,93.98
2022-09-22T03:39:00.486Z,94.07
2022-09-22T03:39:32.312Z,94.04
2022-09-22T03:40:05.001Z,93.97
2022-09-22T03:40:36.853Z,93.88
2022-09-22T03:41:08.444Z,93.99
2022-09-22T03:41:41.048Z,94.03
2022-09-22T03:42:12.562Z,94.07
2022-09-22T03:42:44.578Z,94.14
2022-09-22T03:43:17.380Z,94.14
2022-09-22T03:43:48.919Z,93.92
2022-09-22T03:44:20.502Z,94.12
2022-09-22T03:44:52.109Z,94.27
2022-09-22T03:45:23.691Z,94.27
2022-09-22T03:45:59.841Z,94.20
2022-09-22T03:46:31.524Z,94.32
2022-09-22T03:47:03.128Z,94.39
2022-09-22T03:47:34.669Z,94.31
2022-09-22T03:48:06.172Z,94.32
2022-09-22T03:48:39.655Z,94.34
2022-09-22T03:49:14.460Z,94.30
2022-09-22T03:49:46.020Z,94.27
2022-09-22T03:50:17.648Z,94.29
2022-09-22T03:50:49.227Z,94.18
2022-09-22T03:51:20.743Z,94.09
2022-09-22T03:51:54.016Z,94.09
2022-09-22T03:52:25.947Z,94.20
2022-09-22T03:52:57.653Z,94.27
2022-09-22T03:53:29.476Z,94.34
2022-09-22T03:54:01.140Z,94.46
2022-09-22T03:54:32.719Z,94.39
2022-09-22T03:55:04.576Z,94.45
2022-09-22T03:55:37.232Z,94.47
2022-09-22T03:56:13.048Z,94.48
2022-09-22T03:56:44.686Z,94.41
2022-09-22T03:57:16.262Z,94.23
2022-09-22T03:57:47.853Z,94.10
2022-09-22T03:58:22.600Z,94.02
2022-09-22T03:58:54.640Z,94.34
2022-09-22T03:59:26.141Z,94.21
2022-09-22T03:59:57.750Z,94.24
2022-09-22T04:00:29.387Z,94.32
2022-09-22T04:01:01.003Z,94.33
2022-09-22T04:01:33.661Z,94.36
2022-09-22T04:02:05.529Z,94.39
2022-09-22T04:02:37.100Z,94.27
2022-09-22T04:03:09.007Z,94.28
2022-09-22T04:03:41.003Z,94.19
2022-09-22T04:04:12.542Z,94.10
2022-09-22T04:04:44.383Z,94.01
2022-09-22T04:05:16.026Z,94.09
2022-09-22T04:05:51.396Z,94.10
2022-09-22T04:06:23.036Z,94.09
2022-09-22T04:06:54.817Z,94.03
2022-09-22T04:07:26.374Z,94.16
2022-09-22T04:07:57.922Z,94.19
2022-09-22T04:08:29.818Z,94.19
2022-09-22T04:09:01.514Z,94.34
2022-09-22T04:09:33.020Z,94.35
2022-09-22T04:10:05.353Z,94.42
2022-09-22T04:10:36.860Z,94.36
2022-09-22T04:11:08.394Z,94.41
2022-09-22T04:11:39.880Z,94.39
2022-09-22T04:12:11.823Z,94.46
2022-09-22T04:12:43.328Z,94.39
2022-09-22T04:13:14.848Z,94.44
2022-09-22T04:13:46.747Z,94.52
2022-09-22T04:14:18.314Z,94.59
2022-09-22T04:14:49.843Z,94.69
2022-09-22T04:15:21.344Z,94.68
2022-09-22T04:15:52.857Z,94.64
2022-09-22T04:16:24.597Z,94.62
2022-09-22T04:16:56.715Z,94.68
2022-09-22T04:17:28.385Z,94.63
2022-09-22T04:17:59.891Z,94.65
2022-09-22T04:18:31.867Z,94.58
2022-09-22T04:19:04.934Z,94.75
2022-09-22T04:19:36.474Z,94.68
2022-09-22T04:20:08.698Z,94.63
2022-09-22T04:20:44.298Z,94.73
2022-09-22T04:21:15.856Z,94.60
2022-09-22T04:21:47.367Z,94.54
2022-09-22T04:22:18.883Z,94.62
2022-09-22T04:22:50.417Z,94.65
2022-09-22T04:23:21.910Z,94.59
2022-09-22T04:23:53.444Z,94.69
2022-09-22T04:24:25.034Z,94.73
2022-09-22T04:24:57.524Z,94.83
2022-09-22T04:25:31.540Z,94.93
2022-09-22T04:26:04.147Z,94.88
2022-09-22T04:26:35.652Z,94.88
2022-09-22T04:27:22.581Z,94.71
2022-09-22T04:27:54.200Z,94.74
2022-09-22T04:28:25.760Z,94.65
2022-09-22T04:28:57.258Z,94.80
2022-09-22T04:29:28.752Z,94.67
2022-09-22T04:30:00.926Z,94.65
2022-09-22T04:30:33.647Z,94.65
2022-09-22T04:31:05.463Z,94.58
2022-09-22T04:31:37.084Z,94.45
2022-09-22T04:32:08.615Z,94.42
2022-09-22T04:32:40.329Z,94.34
2022-09-22T04:33:11.837Z,94.37
2022-09-22T04:33:43.341Z,94.45
2022-09-22T04:34:15.043Z,94.42
2022-09-22T04:34:46.928Z,94.39
2022-09-22T04:35:18.456Z,94.31
2022-09-22T04:35:50.318Z,94.14
2022-09-22T04:36:21.852Z,94.10
2022-09-22T04:36:53.377Z,94.17
2022-09-22T04:37:24.908Z,94.25
2022-09-22T04:37:57.000Z,94.45
2022-09-22T04:38:28.503Z,94.55
2022-09-22T04:39:03.862Z,94.50
2022-09-22T04:39:36.029Z,94.62
2022-09-22T04:40:08.326Z,94.54
2022-09-22T04:40:40.309Z,94.49
2022-09-22T04:41:11.834Z,94.42
2022-09-22T04:41:43.354Z,94.52
2022-09-22T04:42:15.134Z,94.62
2022-09-22T04:42:46.885Z,94.60
2022-09-22T04:43:18.420Z,94.60
2022-09-22T04:43:49.974Z,94.53
2022-09-22T04:44:21.488Z,94.51
2022-09-22T04:44:56.075Z,94.43
2022-09-22T04:45:27.608Z,94.55
2022-09-22T04:45:59.198Z,94.57
2022-09-22T04:46:30.747Z,94.33
2022-09-22T04:47:02.753Z,94.21
2022-09-22T04:47:35.113Z,94.11
2022-09-22T04:48:06.698Z,94.13
2022-09-22T04:48:38.189Z,94.21
2022-09-22T04:49:09.697Z,94.10
2022-09-22T04:49:41.198Z,93.89
2022-09-22T04:50:13.357Z,93.74
2022-09-22T04:50:48.042Z,93.93
2022-09-22T04:51:20.072Z,93.85
2022-09-22T04:51:51.598Z,93.85
2022-09-22T04:52:23.173Z,93.86
2022-09-22T04:52:56.622Z,93.91
2022-09-22T04:53:28.121Z,94.15
2022-09-22T04:53:59.705Z,94.20
2022-09-22T04:54:31.664Z,94.24
2022-09-22T04:55:04.154Z,94.11
2022-09-22T04:55:35.891Z,94.06
2022-09-22T04:56:07.392Z,94.25
2022-09-22T04:56:38.888Z,94.12
2022-09-22T04:57:10.380Z,94.08
2022-09-22T04:57:49.121Z,93.98
2022-09-22T04:58:20.625Z,93.94
2022-09-22T04:58:52.121Z,93.96
2022-09-22T04:59:23.769Z,93.95
2022-09-22T04:59:55.454Z,93.91
2022-09-22T05:00:28.863Z,93.81
2022-09-22T05:01:05.154Z,94.07
2022-09-22T05:01:36.812Z,94.04
2022-09-22T05:02:08.609Z,94.28
2022-09-22T05:02:40.237Z,94.24
2022-09-22T05:03:13.005Z,94.20
2022-09-22T05:03:44.606Z,94.15
2022-09-22T05:04:16.106Z,94.26
2022-09-22T05:04:47.613Z,94.22
2022-09-22T05:05:20.362Z,94.33
2022-09-22T05:05:51.954Z,94.66
2022-09-22T05:06:23.519Z,94.51
2022-09-22T05:06:55.302Z,94.51
2022-09-22T05:07:26.842Z,94.49
2022-09-22T05:07:59.023Z,94.45
2022-09-22T05:08:30.520Z,94.31
2022-09-22T05:09:03.188Z,94.40
2022-09-22T05:09:34.754Z,94.37
2022-09-22T05:10:06.625Z,94.34
2022-09-22T05:10:38.193Z,94.21
2022-09-22T05:11:09.739Z,94.22
2022-09-22T05:11:41.371Z,94.31
2022-09-22T05:12:12.993Z,94.38
2022-09-22T05:12:45.245Z,94.14
2022-09-22T05:13:16.731Z,94.36
2022-09-22T05:13:48.288Z,94.15
2022-09-22T05:14:25.562Z,94.04
2022-09-22T05:15:00.583Z,94.15
2022-09-22T05:15:34.510Z,94.33
2022-09-22T05:16:06.944Z,94.19
2022-09-22T05:16:38.510Z,94.08
2022-09-22T05:17:10.093Z,94.12
2022-09-22T05:17:49.332Z,94.16
2022-09-22T05:18:21.189Z,93.96
2022-09-22T05:18:52.944Z,94.34
2022-09-22T05:19:24.493Z,94.50
2022-09-22T05:19:56.047Z,94.74
2022-09-22T05:20:27.555Z,94.77
2022-09-22T05:21:00.148Z,94.68
2022-09-22T05:21:31.889Z,94.81
2022-09-22T05:22:03.615Z,94.82
2022-09-22T05:22:39.778Z,94.75
2022-09-22T05:23:11.659Z,94.77
2022-09-22T05:23:43.314Z,94.63
2022-09-22T05:24:14.838Z,94.51
2022-09-22T05:24:47.238Z,94.36
2022-09-22T05:25:19.779Z,94.31
2022-09-22T05:25:51.278Z,94.23
2022-09-22T05:26:22.930Z,94.28
2022-09-22T05:26:54.447Z,94.28
2022-09-22T05:27:25.980Z,94.43
2022-09-22T05:27:57.542Z,94.41
2022-09-22T05:28:29.514Z,94.25
2022-09-22T05:29:01.107Z,93.93
2022-09-22T05:29:32.628Z,93.42
2022-09-22T05:30:05.768Z,92.84
2022-09-22T05:30:37.286Z,92.16
2022-09-22T05:31:09.063Z,91.80
2022-09-22T05:31:40.576Z,92.04
2022-09-22T05:32:12.121Z,92.43
2022-09-22T05:32:45.397Z,92.82
2022-09-22T05:33:17.417Z,93.01
2022-09-22T05:33:49.144Z,93.33
2022-09-22T05:34:20.721Z,93.68
2022-09-22T05:34:52.216Z,94.08
2022-09-22T05:35:24.795Z,93.96
2022-09-22T05:35:56.428Z,93.93
2022-09-22T05:36:27.994Z,93.94
2022-09-22T05:36:59.550Z,94.04
2022-09-22T05:37:31.096Z,93.93
2022-09-22T05:38:03.086Z,94.26
2022-09-22T05:38:34.619Z,94.33
2022-09-22T05:39:06.287Z,94.32
2022-09-22T05:39:38.072Z,94.54
2022-09-22T05:40:10.617Z,94.43
2022-09-22T05:40:42.308Z,94.31
2022-09-22T05:41:13.871Z,94.31
2022-09-22T05:41:45.468Z,94.40
2022-09-22T05:42:16.961Z,94.45
2022-09-22T05:42:51.441Z,94.46
2022-09-22T05:43:22.944Z,94.43
2022-09-22T05:43:54.464Z,94.51
2022-09-22T05:44:25.966Z,94.39
2022-09-22T05:44:57.472Z,94.43
2022-09-22T05:45:29.058Z,94.36
2022-09-22T05:46:00.765Z,94.16
2022-09-22T05:46:32.603Z,94.25
2022-09-22T05:47:04.185Z,94.21
2022-09-22T05:47:35.930Z,94.21
2022-09-22T05:48:07.516Z,94.37
2022-09-22T05:48:39.054Z,94.41
2022-09-22T05:49:10.583Z,94.47
2022-09-22T05:49:42.084Z,94.23
2022-09-22T05:50:16.397Z,94.09
2022-09-22T05:50:47.934Z,94.15
2022-09-22T05:51:19.446Z,94.28
2022-09-22T05:51:55.267Z,94.30
2022-09-22T05:52:26.877Z,94.03
2022-09-22T05:53:06.994Z,93.99
2022-09-22T05:53:38.905Z,94.12
2022-09-22T05:54:10.457Z,94.05
2022-09-22T05:54:42.825Z,94.33
2022-09-22T05:55:14.648Z,94.12
2022-09-22T05:55:46.198Z,94.34
2022-09-22T05:56:17.702Z,94.21
2022-09-22T05:56:49.240Z,94.12
2022-09-22T05:57:25.575Z,93.94
2022-09-22T05:57:57.741Z,93.53
2022-09-22T05:58:29.251Z,93.74
2022-09-22T05:59:00.773Z,93.52
2022-09-22T05:59:32.306Z,93.41
2022-09-22T06:00:05.615Z,93.32
2022-09-22T06:00:37.656Z,93.30
2022-09-22T06:01:09.262Z,93.32
2022-09-22T06:01:40.882Z,93.28
2022-09-22T06:02:25.288Z,93.41
2022-09-22T06:02:58.034Z,93.59
2022-09-22T06:03:29.989Z,93.50
2022-09-22T06:04:01.706Z,93.38
2022-09-22T06:04:34.302Z,93.54
2022-09-22T06:05:06.037Z,93.61
2022-09-22T06:05:39.458Z,93.27
2022-09-22T06:06:11.278Z,93.08
2022-09-22T06:06:42.780Z,93.31
2022-09-22T06:07:14.356Z,93.40
2022-09-22T06:07:46.654Z,92.93
2022-09-22T06:08:18.154Z,92.90
2022-09-22T06:08:50.935Z,93.01
2022-09-22T06:09:22.434Z,92.91
2022-09-22T06:09:53.991Z,92.74
2022-09-22T06:10:25.559Z,92.57
2022-09-22T06:10:57.134Z,92.75
2022-09-22T06:11:28.624Z,92.64
2022-09-22T06:12:01.069Z,92.55
2022-09-22T06:12:32.576Z,92.30
2022-09-22T06:13:05.982Z,92.04
2022-09-22T06:13:39.004Z,92.09
2022-09-22T06:14:10.510Z,92.37
2022-09-22T06:14:42.044Z,92.26
2022-09-22T06:15:13.561Z,92.19
2022-09-22T06:15:48.664Z,92.32
2022-09-22T06:16:20.235Z,92.16
2022-09-22T06:16:51.894Z,92.05
2022-09-22T06:17:23.457Z,91.96
2022-09-22T06:17:56.187Z,92.05
2022-09-22T06:18:28.254Z,91.86
2022-09-22T06:18:59.772Z,91.88
2022-09-22T06:19:32.704Z,91.86
2022-09-22T06:20:04.797Z,91.99
2022-09-22T06:20:36.386Z,91.93
2022-09-22T06:21:08.146Z,91.99
2022-09-22T06:21:39.636Z,92.16
2022-09-22T06:22:11.692Z,92.07
2022-09-22T06:22:44.987Z,91.84
2022-09-22T06:23:16.488Z,92.00
2022-09-22T06:23:47.979Z,91.97
2022-09-22T06:24:19.507Z,91.80
2022-09-22T06:24:51.010Z,91.96
2022-09-22T06:25:23.524Z,92.06
2022-09-22T06:25:59.291Z,91.78
2022-09-22T06:26:30.955Z,91.83
2022-09-22T06:27:02.710Z,91.47
2022-09-22T06:27:34.210Z,91.05
2022-09-22T06:28:07.975Z,91.06
2022-09-22T06:28:39.502Z,91.05
2022-09-22T06:29:11.050Z,91.02
2022-09-22T06:29:42.569Z,90.80
2022-09-22T06:30:14.144Z,91.05
2022-09-22T06:30:45.660Z,91.21
2022-09-22T06:31:17.440Z,91.05
2022-09-22T06:31:49.532Z,90.89
2022-09-22T06:32:21.147Z,90.95
2022-09-22T06:32:56.302Z,90.86
2022-09-22T06:33:29.215Z,90.65
2022-09-22T06:34:04.249Z,90.33
2022-09-22T06:34:38.446Z,90.29
2022-09-22T06:35:10.158Z,90.48
2022-09-22T06:35:42.871Z,90.08
2022-09-22T06:36:23.149Z,90.17
2022-09-22T06:36:56.366Z,90.16
2022-09-22T06:37:28.994Z,90.04
2022-09-22T06:38:00.501Z,89.65
2022-09-22T06:38:32.052Z,89.01
2022-09-22T06:39:04.377Z,89.13
2022-09-22T06:39:39.028Z,88.90
2022-09-22T06:40:15.288Z,88.85
2022-09-22T06:40:48.933Z,88.73
2022-09-22T06:41:20.495Z,88.44
2022-09-22T06:41:51.993Z,87.81
2022-09-22T06:42:23.655Z,87.38
2022-09-22T06:43:20.769Z,86.75
2022-09-22T06:43:55.913Z,85.08
2022-09-22T06:44:29.026Z,84.68
2022-09-22T06:45:01.347Z,83.39
2022-09-22T06:45:33.929Z,82.10
2022-09-22T06:46:05.819Z,80.02
2022-09-22T06:46:37.929Z,78.22
2022-09-22T06:47:11.465Z,76.37
2022-09-22T06:47:43.109Z,75.30
2022-09-22T06:48:14.676Z,74.44
2022-09-22T06:48:50.387Z,73.13
2022-09-22T06:49:21.946Z,71.69
2022-09-22T06:49:53.713Z,69.90
2022-09-22T06:50:30.712Z,68.09
2022-09-22T06:51:02.392Z,65.86
2022-09-22T06:51:36.874Z,65.84
2022-09-22T06:52:13.194Z,63.81
2022-09-22T06:52:44.899Z,63.09
2022-09-22T06:53:17.500Z,61.88
2022-09-22T06:53:51.966Z,61.17
2022-09-22T06:54:25.360Z,60.19
2022-09-22T06:55:00.080Z,59.66
2022-09-22T06:55:31.890Z,58.23
2022-09-22T06:56:05.805Z,57.61
2022-09-22T06:56:42.816Z,56.94
2022-09-22T06:57:14.325Z,58.08
2022-09-22T06:57:45.974Z,59.76
2022-09-22T06:58:17.488Z,58.92
2022-09-22T06:59:08.814Z,56.63
2022-09-22T06:59:41.306Z,56.17
2022-09-22T07:00:15.078Z,56.71
2022-09-22T07:00:47.241Z,55.76
2022-09-22T07:01:19.785Z,54.60
2022-09-22T07:01:51.463Z,55.19
2022-09-22T07:02:27.773Z,55.05
2022-09-22T07:03:08.642Z,54.23
2022-09-22T07:03:41.746Z,53.15
2022-09-22T07:04:14.179Z,53.68
2022-09-22T07:04:46.628Z,52.98
2022-09-22T07:05:21.020Z,53.09
2022-09-22T07:05:53.803Z,52.10
2022-09-22T07:06:26.280Z,52.20
2022-09-22T07:06:58.679Z,52.47
2022-09-22T07:07:31.955Z,52.13
2022-09-22T07:08:04.914Z,51.52
2022-09-22T07:08:38.325Z,51.25
2022-09-22T07:09:09.880Z,50.52
2022-09-22T07:09:41.391Z,51.37
2022-09-22T07:10:12.963Z,49.80
2022-09-22T07:10:44.759Z,49.49
2022-09-22T07:11:23.869Z,48.92
2022-09-22T07:11:55.633Z,49.34
2022-09-22T07:12:27.801Z,49.76
2022-09-22T07:13:02.057Z,51.33
2022-09-22T07:13:39.053Z,50.70
2022-09-22T07:14:12.619Z,49.87
2022-09-22T07:14:44.962Z,50.63
2022-09-22T07:15:16.571Z,51.18
2022-09-22T07:15:48.148Z,50.96
2022-09-22T07:16:22.431Z,50.21
2022-09-22T07:16:55.365Z,49.23
2022-09-22T07:17:28.233Z,49.55
2022-09-22T07:17:59.737Z,50.59
2022-09-22T07:18:31.488Z,49.31
2022-09-22T07:19:03.001Z,49.96
2022-09-22T07:19:35.175Z,51.28
2022-09-22T07:20:08.245Z,52.39
2022-09-22T07:20:39.788Z,54.00
2022-09-22T07:21:19.765Z,54.65
2022-09-22T07:21:51.264Z,54.59
2022-09-22T07:22:23.163Z,55.47
2022-09-22T07:23:00.445Z,55.11
2022-09-22T07:23:34.689Z,54.39
2022-09-22T07:25:08.654Z,52.74
2022-09-22T07:25:40.161Z,52.96
2022-09-22T07:26:17.324Z,52.37
2022-09-22T07:26:48.940Z,54.06